sensor_id;sensor_type;location;lat;lon;timestamp;temperature;humidity
49124;DHT22;48506;48.202;16.274;2023-12-20T00:02:23;2.80;97.90
49124;DHT22;48506;48.202;16.274;2023-12-20T00:04:49;2.90;98.00
49124;DHT22;48506;48.202;16.274;2023-12-20T00:07:16;2.80;98.00
49124;DHT22;48506;48.202;16.274;2023-12-20T00:09:41;2.80;98.00
49124;DHT22;48506;48.202;16.274;2023-12-20T00:12:07;2.80;98.00
49124;DHT22;48506;48.202;16.274;2023-12-20T00:14:33;2.90;98.10
49124;DHT22;48506;48.202;16.274;2023-12-20T00:16:59;2.80;97.90
49124;DHT22;48506;48.202;16.274;2023-12-20T00:19:25;2.80;98.00
49124;DHT22;48506;48.202;16.274;2023-12-20T00:21:51;2.70;98.00
49124;DHT22;48506;48.202;16.274;2023-12-20T00:24:17;2.80;97.90
49124;DHT22;48506;48.202;16.274;2023-12-20T00:26:43;2.70;97.90
49124;DHT22;48506;48.202;16.274;2023-12-20T00:29:09;2.70;98.00
49124;DHT22;48506;48.202;16.274;2023-12-20T00:31:35;2.60;97.80
49124;DHT22;48506;48.202;16.274;2023-12-20T00:34:01;2.60;98.00
49124;DHT22;48506;48.202;16.274;2023-12-20T00:36:27;2.50;98.00
49124;DHT22;48506;48.202;16.274;2023-12-20T00:38:52;2.50;98.20
49124;DHT22;48506;48.202;16.274;2023-12-20T00:41:18;2.50;98.10
49124;DHT22;48506;48.202;16.274;2023-12-20T00:43:44;2.40;98.10
49124;DHT22;48506;48.202;16.274;2023-12-20T00:46:10;2.50;98.20
49124;DHT22;48506;48.202;16.274;2023-12-20T00:48:36;2.50;98.40
49124;DHT22;48506;48.202;16.274;2023-12-20T00:51:02;2.50;98.50
49124;DHT22;48506;48.202;16.274;2023-12-20T00:53:29;2.40;98.30
49124;DHT22;48506;48.202;16.274;2023-12-20T00:55:55;2.40;98.40
49124;DHT22;48506;48.202;16.274;2023-12-20T00:58:21;2.40;98.40
49124;DHT22;48506;48.202;16.274;2023-12-20T01:00:47;2.40;98.50
49124;DHT22;48506;48.202;16.274;2023-12-20T01:03:13;2.40;98.60
49124;DHT22;48506;48.202;16.274;2023-12-20T01:05:40;2.40;98.60
49124;DHT22;48506;48.202;16.274;2023-12-20T01:08:05;2.40;98.60
49124;DHT22;48506;48.202;16.274;2023-12-20T01:10:31;2.40;98.60
49124;DHT22;48506;48.202;16.274;2023-12-20T01:12:57;2.50;98.70
49124;DHT22;48506;48.202;16.274;2023-12-20T01:15:23;2.50;98.60
49124;DHT22;48506;48.202;16.274;2023-12-20T01:17:49;2.60;98.60
49124;DHT22;48506;48.202;16.274;2023-12-20T01:20:15;2.60;98.50
49124;DHT22;48506;48.202;16.274;2023-12-20T01:22:41;2.60;98.50
49124;DHT22;48506;48.202;16.274;2023-12-20T01:25:08;2.60;98.30
49124;DHT22;48506;48.202;16.274;2023-12-20T01:27:34;2.60;98.30
49124;DHT22;48506;48.202;16.274;2023-12-20T01:30:00;2.60;98.30
49124;DHT22;48506;48.202;16.274;2023-12-20T01:32:26;2.60;98.40
49124;DHT22;48506;48.202;16.274;2023-12-20T01:34:52;2.60;98.50
49124;DHT22;48506;48.202;16.274;2023-12-20T01:37:18;2.60;98.50
49124;DHT22;48506;48.202;16.274;2023-12-20T01:39:43;2.50;98.50
49124;DHT22;48506;48.202;16.274;2023-12-20T01:42:09;2.50;98.60
49124;DHT22;48506;48.202;16.274;2023-12-20T01:44:35;2.50;98.70
49124;DHT22;48506;48.202;16.274;2023-12-20T01:47:01;2.60;98.70
49124;DHT22;48506;48.202;16.274;2023-12-20T01:49:28;2.50;98.50
49124;DHT22;48506;48.202;16.274;2023-12-20T01:51:54;2.50;98.60
49124;DHT22;48506;48.202;16.274;2023-12-20T01:54:20;2.50;98.70
49124;DHT22;48506;48.202;16.274;2023-12-20T01:56:46;2.50;98.70
49124;DHT22;48506;48.202;16.274;2023-12-20T01:59:12;2.50;98.80
49124;DHT22;48506;48.202;16.274;2023-12-20T02:01:38;2.50;98.70
49124;DHT22;48506;48.202;16.274;2023-12-20T02:04:04;2.50;98.70
49124;DHT22;48506;48.202;16.274;2023-12-20T02:06:31;2.50;98.70
49124;DHT22;48506;48.202;16.274;2023-12-20T02:09:00;2.50;98.80
49124;DHT22;48506;48.202;16.274;2023-12-20T02:11:26;2.50;98.90
49124;DHT22;48506;48.202;16.274;2023-12-20T02:13:53;2.50;98.90
49124;DHT22;48506;48.202;16.274;2023-12-20T02:16:19;2.50;98.90
49124;DHT22;48506;48.202;16.274;2023-12-20T02:18:46;2.40;98.90
49124;DHT22;48506;48.202;16.274;2023-12-20T02:21:12;2.50;99.10
49124;DHT22;48506;48.202;16.274;2023-12-20T02:23:38;2.50;99.20
49124;DHT22;48506;48.202;16.274;2023-12-20T02:26:04;2.80;99.20
49124;DHT22;48506;48.202;16.274;2023-12-20T02:28:32;3.00;98.90
49124;DHT22;48506;48.202;16.274;2023-12-20T02:30:58;3.60;98.10
49124;DHT22;48506;48.202;16.274;2023-12-20T02:33:23;4.40;97.10
49124;DHT22;48506;48.202;16.274;2023-12-20T02:35:49;5.10;95.30
49124;DHT22;48506;48.202;16.274;2023-12-20T02:38:15;5.70;94.80
49124;DHT22;48506;48.202;16.274;2023-12-20T02:40:41;6.10;93.70
49124;DHT22;48506;48.202;16.274;2023-12-20T02:43:07;6.50;92.70
49124;DHT22;48506;48.202;16.274;2023-12-20T02:45:33;6.90;91.90
49124;DHT22;48506;48.202;16.274;2023-12-20T02:47:59;7.20;91.50
49124;DHT22;48506;48.202;16.274;2023-12-20T02:50:25;7.40;91.20
49124;DHT22;48506;48.202;16.274;2023-12-20T02:52:50;7.50;90.30
49124;DHT22;48506;48.202;16.274;2023-12-20T02:55:16;7.70;90.20
49124;DHT22;48506;48.202;16.274;2023-12-20T02:57:42;7.90;90.00
49124;DHT22;48506;48.202;16.274;2023-12-20T03:00:11;7.90;89.60
49124;DHT22;48506;48.202;16.274;2023-12-20T03:02:37;8.00;89.10
49124;DHT22;48506;48.202;16.274;2023-12-20T03:05:03;8.00;88.70
49124;DHT22;48506;48.202;16.274;2023-12-20T03:07:29;8.10;88.30
49124;DHT22;48506;48.202;16.274;2023-12-20T03:09:55;8.10;86.90
49124;DHT22;48506;48.202;16.274;2023-12-20T03:12:21;8.30;86.70
49124;DHT22;48506;48.202;16.274;2023-12-20T03:14:48;8.30;86.60
49124;DHT22;48506;48.202;16.274;2023-12-20T03:17:14;8.30;86.20
49124;DHT22;48506;48.202;16.274;2023-12-20T03:19:40;8.40;86.10
49124;DHT22;48506;48.202;16.274;2023-12-20T03:22:05;8.40;86.30
49124;DHT22;48506;48.202;16.274;2023-12-20T03:24:32;8.40;86.40
49124;DHT22;48506;48.202;16.274;2023-12-20T03:26:58;8.40;85.40
49124;DHT22;48506;48.202;16.274;2023-12-20T03:29:23;8.40;85.20
49124;DHT22;48506;48.202;16.274;2023-12-20T03:31:49;8.50;85.00
49124;DHT22;48506;48.202;16.274;2023-12-20T03:34:15;8.50;84.90
49124;DHT22;48506;48.202;16.274;2023-12-20T03:36:41;8.50;83.60
49124;DHT22;48506;48.202;16.274;2023-12-20T03:39:07;8.50;84.00
49124;DHT22;48506;48.202;16.274;2023-12-20T03:41:33;8.60;83.90
49124;DHT22;48506;48.202;16.274;2023-12-20T03:43:59;8.60;83.40
49124;DHT22;48506;48.202;16.274;2023-12-20T03:46:24;8.60;83.40
49124;DHT22;48506;48.202;16.274;2023-12-20T03:48:50;8.60;83.20
49124;DHT22;48506;48.202;16.274;2023-12-20T03:51:16;8.60;83.70
49124;DHT22;48506;48.202;16.274;2023-12-20T03:53:42;8.60;83.80
49124;DHT22;48506;48.202;16.274;2023-12-20T03:56:08;8.60;83.00
49124;DHT22;48506;48.202;16.274;2023-12-20T03:58:34;8.50;83.30
49124;DHT22;48506;48.202;16.274;2023-12-20T04:01:00;8.50;82.70
49124;DHT22;48506;48.202;16.274;2023-12-20T04:03:25;8.60;83.20
49124;DHT22;48506;48.202;16.274;2023-12-20T04:05:51;8.50;83.10
49124;DHT22;48506;48.202;16.274;2023-12-20T04:08:17;8.40;83.30
49124;DHT22;48506;48.202;16.274;2023-12-20T04:10:43;8.40;83.70
49124;DHT22;48506;48.202;16.274;2023-12-20T04:13:09;8.30;83.60
49124;DHT22;48506;48.202;16.274;2023-12-20T04:15:35;8.20;84.10
49124;DHT22;48506;48.202;16.274;2023-12-20T04:18:01;8.00;84.10
49124;DHT22;48506;48.202;16.274;2023-12-20T04:20:27;7.80;84.10
49124;DHT22;48506;48.202;16.274;2023-12-20T04:22:53;7.60;84.60
49124;DHT22;48506;48.202;16.274;2023-12-20T04:25:18;7.40;84.70
49124;DHT22;48506;48.202;16.274;2023-12-20T04:27:44;7.20;84.80
49124;DHT22;48506;48.202;16.274;2023-12-20T04:30:11;7.00;85.80
49124;DHT22;48506;48.202;16.274;2023-12-20T04:32:37;6.90;86.30
49124;DHT22;48506;48.202;16.274;2023-12-20T04:35:03;6.80;86.60
49124;DHT22;48506;48.202;16.274;2023-12-20T04:37:29;6.70;86.50
49124;DHT22;48506;48.202;16.274;2023-12-20T04:39:55;6.50;87.00
49124;DHT22;48506;48.202;16.274;2023-12-20T04:42:20;6.50;87.50
49124;DHT22;48506;48.202;16.274;2023-12-20T04:44:46;6.70;87.80
49124;DHT22;48506;48.202;16.274;2023-12-20T04:47:12;6.90;87.60
49124;DHT22;48506;48.202;16.274;2023-12-20T04:49:38;7.30;87.90
49124;DHT22;48506;48.202;16.274;2023-12-20T04:52:04;7.70;87.60
49124;DHT22;48506;48.202;16.274;2023-12-20T04:54:30;7.90;87.30
49124;DHT22;48506;48.202;16.274;2023-12-20T04:56:55;8.10;87.40
49124;DHT22;48506;48.202;16.274;2023-12-20T04:59:21;8.20;87.40
49124;DHT22;48506;48.202;16.274;2023-12-20T05:01:47;8.30;87.50
49124;DHT22;48506;48.202;16.274;2023-12-20T05:04:13;8.40;87.80
49124;DHT22;48506;48.202;16.274;2023-12-20T05:06:39;8.50;88.30
49124;DHT22;48506;48.202;16.274;2023-12-20T05:09:05;8.50;88.20
49124;DHT22;48506;48.202;16.274;2023-12-20T05:11:31;8.60;88.80
49124;DHT22;48506;48.202;16.274;2023-12-20T05:13:56;8.70;89.20
49124;DHT22;48506;48.202;16.274;2023-12-20T05:16:22;8.70;89.80
49124;DHT22;48506;48.202;16.274;2023-12-20T05:18:49;8.70;90.10
49124;DHT22;48506;48.202;16.274;2023-12-20T05:21:18;8.70;90.30
49124;DHT22;48506;48.202;16.274;2023-12-20T05:23:43;8.70;90.30
49124;DHT22;48506;48.202;16.274;2023-12-20T05:26:09;8.70;90.40
49124;DHT22;48506;48.202;16.274;2023-12-20T05:28:35;8.70;90.50
49124;DHT22;48506;48.202;16.274;2023-12-20T05:31:01;8.80;90.50
49124;DHT22;48506;48.202;16.274;2023-12-20T05:33:27;8.90;90.60
49124;DHT22;48506;48.202;16.274;2023-12-20T05:35:53;8.90;90.60
49124;DHT22;48506;48.202;16.274;2023-12-20T05:38:20;8.80;90.60
49124;DHT22;48506;48.202;16.274;2023-12-20T05:40:46;8.90;90.70
49124;DHT22;48506;48.202;16.274;2023-12-20T05:43:12;8.90;90.80
49124;DHT22;48506;48.202;16.274;2023-12-20T05:45:38;8.90;90.80
49124;DHT22;48506;48.202;16.274;2023-12-20T05:48:04;9.00;90.80
49124;DHT22;48506;48.202;16.274;2023-12-20T05:50:30;9.00;90.80
49124;DHT22;48506;48.202;16.274;2023-12-20T05:52:55;9.00;90.70
49124;DHT22;48506;48.202;16.274;2023-12-20T05:55:21;9.10;90.70
49124;DHT22;48506;48.202;16.274;2023-12-20T05:57:47;9.10;90.70
49124;DHT22;48506;48.202;16.274;2023-12-20T06:00:14;9.10;90.70
49124;DHT22;48506;48.202;16.274;2023-12-20T06:02:41;9.10;90.70
49124;DHT22;48506;48.202;16.274;2023-12-20T06:05:07;9.20;90.60
49124;DHT22;48506;48.202;16.274;2023-12-20T06:07:33;9.30;90.50
49124;DHT22;48506;48.202;16.274;2023-12-20T06:09:59;9.30;90.50
49124;DHT22;48506;48.202;16.274;2023-12-20T06:12:25;9.30;90.50
49124;DHT22;48506;48.202;16.274;2023-12-20T06:14:52;9.30;90.40
49124;DHT22;48506;48.202;16.274;2023-12-20T06:17:18;9.30;90.30
49124;DHT22;48506;48.202;16.274;2023-12-20T06:19:44;9.30;90.10
49124;DHT22;48506;48.202;16.274;2023-12-20T06:22:15;9.30;90.10
49124;DHT22;48506;48.202;16.274;2023-12-20T06:24:41;9.30;90.00
49124;DHT22;48506;48.202;16.274;2023-12-20T06:27:06;9.40;89.60
49124;DHT22;48506;48.202;16.274;2023-12-20T06:29:32;9.30;89.40
49124;DHT22;48506;48.202;16.274;2023-12-20T06:32:00;9.40;89.40
49124;DHT22;48506;48.202;16.274;2023-12-20T06:34:26;9.40;89.10
49124;DHT22;48506;48.202;16.274;2023-12-20T06:36:52;9.30;89.40
49124;DHT22;48506;48.202;16.274;2023-12-20T06:39:17;9.30;89.40
49124;DHT22;48506;48.202;16.274;2023-12-20T06:41:43;9.40;89.40
49124;DHT22;48506;48.202;16.274;2023-12-20T06:44:09;9.40;89.50
49124;DHT22;48506;48.202;16.274;2023-12-20T06:46:35;9.40;89.80
49124;DHT22;48506;48.202;16.274;2023-12-20T06:49:01;9.40;90.00
49124;DHT22;48506;48.202;16.274;2023-12-20T06:51:27;9.40;90.40
49124;DHT22;48506;48.202;16.274;2023-12-20T06:53:53;9.40;90.20
49124;DHT22;48506;48.202;16.274;2023-12-20T06:56:19;9.40;90.20
49124;DHT22;48506;48.202;16.274;2023-12-20T06:58:45;9.50;90.30
49124;DHT22;48506;48.202;16.274;2023-12-20T07:01:15;9.50;90.20
49124;DHT22;48506;48.202;16.274;2023-12-20T07:03:41;9.50;90.10
49124;DHT22;48506;48.202;16.274;2023-12-20T07:06:07;9.60;89.80
49124;DHT22;48506;48.202;16.274;2023-12-20T07:08:33;9.60;89.20
49124;DHT22;48506;48.202;16.274;2023-12-20T07:10:59;9.60;89.20
49124;DHT22;48506;48.202;16.274;2023-12-20T07:13:25;9.60;89.10
49124;DHT22;48506;48.202;16.274;2023-12-20T07:15:51;9.60;89.20
49124;DHT22;48506;48.202;16.274;2023-12-20T07:18:17;9.60;89.20
49124;DHT22;48506;48.202;16.274;2023-12-20T07:20:43;9.50;89.30
49124;DHT22;48506;48.202;16.274;2023-12-20T07:23:09;9.50;89.90
49124;DHT22;48506;48.202;16.274;2023-12-20T07:25:35;9.50;90.00
49124;DHT22;48506;48.202;16.274;2023-12-20T07:28:01;9.50;90.50
49124;DHT22;48506;48.202;16.274;2023-12-20T07:30:26;9.40;91.40
49124;DHT22;48506;48.202;16.274;2023-12-20T07:32:52;9.20;92.00
49124;DHT22;48506;48.202;16.274;2023-12-20T07:35:18;9.10;92.20
49124;DHT22;48506;48.202;16.274;2023-12-20T07:37:44;9.00;92.10
49124;DHT22;48506;48.202;16.274;2023-12-20T07:40:10;8.90;92.00
49124;DHT22;48506;48.202;16.274;2023-12-20T07:42:36;8.90;92.10
49124;DHT22;48506;48.202;16.274;2023-12-20T07:45:03;8.90;92.00
49124;DHT22;48506;48.202;16.274;2023-12-20T07:47:29;8.90;92.30
49124;DHT22;48506;48.202;16.274;2023-12-20T07:49:54;8.80;92.40
49124;DHT22;48506;48.202;16.274;2023-12-20T07:52:20;8.80;92.70
49124;DHT22;48506;48.202;16.274;2023-12-20T07:54:48;8.70;93.30
49124;DHT22;48506;48.202;16.274;2023-12-20T07:57:14;8.60;93.90
49124;DHT22;48506;48.202;16.274;2023-12-20T07:59:40;8.50;93.60
49124;DHT22;48506;48.202;16.274;2023-12-20T08:02:06;8.40;93.40
49124;DHT22;48506;48.202;16.274;2023-12-20T08:04:32;8.40;93.20
49124;DHT22;48506;48.202;16.274;2023-12-20T08:06:58;8.40;93.60
49124;DHT22;48506;48.202;16.274;2023-12-20T08:09:24;8.40;93.60
49124;DHT22;48506;48.202;16.274;2023-12-20T08:11:50;8.40;93.50
49124;DHT22;48506;48.202;16.274;2023-12-20T08:14:16;8.40;93.40
49124;DHT22;48506;48.202;16.274;2023-12-20T08:16:41;8.40;93.40
49124;DHT22;48506;48.202;16.274;2023-12-20T08:19:08;8.40;93.10
49124;DHT22;48506;48.202;16.274;2023-12-20T08:21:34;8.40;93.00
49124;DHT22;48506;48.202;16.274;2023-12-20T08:24:00;8.40;93.00
49124;DHT22;48506;48.202;16.274;2023-12-20T08:26:26;8.50;93.00
49124;DHT22;48506;48.202;16.274;2023-12-20T08:28:52;8.40;93.00
49124;DHT22;48506;48.202;16.274;2023-12-20T08:31:18;8.40;93.00
49124;DHT22;48506;48.202;16.274;2023-12-20T08:33:46;8.50;92.80
49124;DHT22;48506;48.202;16.274;2023-12-20T08:36:13;8.50;93.00
49124;DHT22;48506;48.202;16.274;2023-12-20T08:38:39;8.50;92.90
49124;DHT22;48506;48.202;16.274;2023-12-20T08:41:06;8.50;92.90
49124;DHT22;48506;48.202;16.274;2023-12-20T08:43:33;8.60;92.80
49124;DHT22;48506;48.202;16.274;2023-12-20T08:46:00;8.60;92.80
49124;DHT22;48506;48.202;16.274;2023-12-20T08:48:26;8.60;93.20
49124;DHT22;48506;48.202;16.274;2023-12-20T08:50:51;8.60;93.00
49124;DHT22;48506;48.202;16.274;2023-12-20T08:53:18;8.60;93.00
49124;DHT22;48506;48.202;16.274;2023-12-20T08:55:44;8.50;93.10
49124;DHT22;48506;48.202;16.274;2023-12-20T08:58:11;8.50;92.90
49124;DHT22;48506;48.202;16.274;2023-12-20T09:00:37;8.50;92.90
49124;DHT22;48506;48.202;16.274;2023-12-20T09:03:04;8.50;93.00
49124;DHT22;48506;48.202;16.274;2023-12-20T09:05:30;8.50;93.10
49124;DHT22;48506;48.202;16.274;2023-12-20T09:07:56;8.50;93.30
49124;DHT22;48506;48.202;16.274;2023-12-20T09:10:22;8.50;93.20
49124;DHT22;48506;48.202;16.274;2023-12-20T09:12:51;8.50;93.20
49124;DHT22;48506;48.202;16.274;2023-12-20T09:15:23;8.50;93.50
49124;DHT22;48506;48.202;16.274;2023-12-20T09:17:49;8.50;93.40
49124;DHT22;48506;48.202;16.274;2023-12-20T09:20:15;8.50;93.50
49124;DHT22;48506;48.202;16.274;2023-12-20T09:22:42;8.50;93.40
49124;DHT22;48506;48.202;16.274;2023-12-20T09:25:10;8.50;93.70
49124;DHT22;48506;48.202;16.274;2023-12-20T09:27:37;8.40;94.10
49124;DHT22;48506;48.202;16.274;2023-12-20T09:30:03;8.40;94.00
49124;DHT22;48506;48.202;16.274;2023-12-20T09:32:31;8.40;94.00
49124;DHT22;48506;48.202;16.274;2023-12-20T09:34:57;8.40;94.00
49124;DHT22;48506;48.202;16.274;2023-12-20T09:37:26;8.40;94.00
49124;DHT22;48506;48.202;16.274;2023-12-20T09:39:52;8.40;94.20
49124;DHT22;48506;48.202;16.274;2023-12-20T09:42:29;8.40;94.20
49124;DHT22;48506;48.202;16.274;2023-12-20T09:44:55;8.30;94.50
49124;DHT22;48506;48.202;16.274;2023-12-20T09:47:24;8.20;94.80
49124;DHT22;48506;48.202;16.274;2023-12-20T09:49:51;8.10;95.40
49124;DHT22;48506;48.202;16.274;2023-12-20T09:52:18;8.00;95.60
49124;DHT22;48506;48.202;16.274;2023-12-20T09:54:47;7.90;96.00
49124;DHT22;48506;48.202;16.274;2023-12-20T09:57:15;7.80;96.30
49124;DHT22;48506;48.202;16.274;2023-12-20T09:59:41;7.70;96.70
49124;DHT22;48506;48.202;16.274;2023-12-20T10:02:12;7.60;97.10
49124;DHT22;48506;48.202;16.274;2023-12-20T10:04:46;7.50;97.60
49124;DHT22;48506;48.202;16.274;2023-12-20T10:07:13;7.40;97.90
49124;DHT22;48506;48.202;16.274;2023-12-20T10:09:39;7.40;98.30
49124;DHT22;48506;48.202;16.274;2023-12-20T10:12:05;7.30;98.50
49124;DHT22;48506;48.202;16.274;2023-12-20T10:14:33;7.30;98.30
49124;DHT22;48506;48.202;16.274;2023-12-20T10:17:05;7.30;98.60
49124;DHT22;48506;48.202;16.274;2023-12-20T10:19:34;7.20;98.60
49124;DHT22;48506;48.202;16.274;2023-12-20T10:22:01;7.20;98.60
49124;DHT22;48506;48.202;16.274;2023-12-20T10:24:30;7.20;98.80
49124;DHT22;48506;48.202;16.274;2023-12-20T10:29:38;7.30;98.70
49124;DHT22;48506;48.202;16.274;2023-12-20T10:32:36;7.30;98.30
49124;DHT22;48506;48.202;16.274;2023-12-20T10:35:02;7.40;98.30
49124;DHT22;48506;48.202;16.274;2023-12-20T10:37:28;7.40;98.20
49124;DHT22;48506;48.202;16.274;2023-12-20T10:39:55;7.50;98.00
49124;DHT22;48506;48.202;16.274;2023-12-20T10:42:27;7.50;97.90
49124;DHT22;48506;48.202;16.274;2023-12-20T10:44:53;7.50;97.90
49124;DHT22;48506;48.202;16.274;2023-12-20T10:47:20;7.50;98.00
49124;DHT22;48506;48.202;16.274;2023-12-20T10:49:46;7.50;97.90
49124;DHT22;48506;48.202;16.274;2023-12-20T10:52:13;7.60;98.00
49124;DHT22;48506;48.202;16.274;2023-12-20T10:54:41;7.70;97.90
49124;DHT22;48506;48.202;16.274;2023-12-20T10:57:08;7.70;97.60
49124;DHT22;48506;48.202;16.274;2023-12-20T10:59:36;7.70;97.70
49124;DHT22;48506;48.202;16.274;2023-12-20T11:02:03;7.70;97.50
49124;DHT22;48506;48.202;16.274;2023-12-20T11:04:47;7.70;97.70
49124;DHT22;48506;48.202;16.274;2023-12-20T11:07:27;7.70;97.70
49124;DHT22;48506;48.202;16.274;2023-12-20T11:10:20;7.80;97.60
49124;DHT22;48506;48.202;16.274;2023-12-20T11:13:03;7.80;97.60
49124;DHT22;48506;48.202;16.274;2023-12-20T11:15:36;7.90;97.40
49124;DHT22;48506;48.202;16.274;2023-12-20T11:18:04;7.90;97.40
49124;DHT22;48506;48.202;16.274;2023-12-20T11:20:37;7.90;97.30
49124;DHT22;48506;48.202;16.274;2023-12-20T11:23:04;7.90;97.30
49124;DHT22;48506;48.202;16.274;2023-12-20T11:25:52;8.00;97.20
49124;DHT22;48506;48.202;16.274;2023-12-20T11:28:23;8.00;97.20
49124;DHT22;48506;48.202;16.274;2023-12-20T11:30:56;8.00;97.20
49124;DHT22;48506;48.202;16.274;2023-12-20T11:33:24;8.10;97.10
49124;DHT22;48506;48.202;16.274;2023-12-20T11:35:51;8.10;97.00
49124;DHT22;48506;48.202;16.274;2023-12-20T11:38:20;8.10;97.10
49124;DHT22;48506;48.202;16.274;2023-12-20T11:40:48;8.10;97.10
49124;DHT22;48506;48.202;16.274;2023-12-20T11:43:53;8.10;96.90
49124;DHT22;48506;48.202;16.274;2023-12-20T11:46:20;8.20;97.10
49124;DHT22;48506;48.202;16.274;2023-12-20T11:48:46;8.20;97.00
49124;DHT22;48506;48.202;16.274;2023-12-20T11:51:14;8.20;96.90
49124;DHT22;48506;48.202;16.274;2023-12-20T11:53:42;8.30;97.00
49124;DHT22;48506;48.202;16.274;2023-12-20T11:56:10;8.30;96.90
49124;DHT22;48506;48.202;16.274;2023-12-20T11:58:36;8.40;96.70
49124;DHT22;48506;48.202;16.274;2023-12-20T12:01:02;8.50;96.60
49124;DHT22;48506;48.202;16.274;2023-12-20T12:03:30;8.60;96.40
49124;DHT22;48506;48.202;16.274;2023-12-20T12:05:56;8.70;96.20
49124;DHT22;48506;48.202;16.274;2023-12-20T12:08:23;8.80;96.00
49124;DHT22;48506;48.202;16.274;2023-12-20T12:10:49;8.90;95.90
49124;DHT22;48506;48.202;16.274;2023-12-20T12:13:15;8.90;95.50
49124;DHT22;48506;48.202;16.274;2023-12-20T12:15:42;8.90;95.60
49124;DHT22;48506;48.202;16.274;2023-12-20T12:18:08;9.10;95.70
49124;DHT22;48506;48.202;16.274;2023-12-20T12:20:34;9.10;95.20
49124;DHT22;48506;48.202;16.274;2023-12-20T12:23:04;9.10;95.10
49124;DHT22;48506;48.202;16.274;2023-12-20T12:25:33;9.10;95.30
49124;DHT22;48506;48.202;16.274;2023-12-20T12:28:01;9.10;95.20
49124;DHT22;48506;48.202;16.274;2023-12-20T12:30:27;9.20;95.20
49124;DHT22;48506;48.202;16.274;2023-12-20T12:32:55;9.20;95.40
49124;DHT22;48506;48.202;16.274;2023-12-20T12:35:21;9.20;95.20
49124;DHT22;48506;48.202;16.274;2023-12-20T12:37:47;9.10;95.10
49124;DHT22;48506;48.202;16.274;2023-12-20T12:40:15;9.00;95.20
49124;DHT22;48506;48.202;16.274;2023-12-20T12:42:43;8.90;95.30
49124;DHT22;48506;48.202;16.274;2023-12-20T12:45:09;8.80;95.40
49124;DHT22;48506;48.202;16.274;2023-12-20T12:47:36;8.80;95.60
49124;DHT22;48506;48.202;16.274;2023-12-20T12:50:02;8.80;95.50
49124;DHT22;48506;48.202;16.274;2023-12-20T12:52:28;8.80;95.50
49124;DHT22;48506;48.202;16.274;2023-12-20T12:54:54;8.80;95.60
49124;DHT22;48506;48.202;16.274;2023-12-20T12:57:20;8.70;95.60
49124;DHT22;48506;48.202;16.274;2023-12-20T12:59:46;8.70;95.70
49124;DHT22;48506;48.202;16.274;2023-12-20T13:02:13;8.70;95.60
49124;DHT22;48506;48.202;16.274;2023-12-20T13:04:40;8.60;95.70
49124;DHT22;48506;48.202;16.274;2023-12-20T13:07:07;8.70;95.60
49124;DHT22;48506;48.202;16.274;2023-12-20T13:09:33;8.70;95.50
49124;DHT22;48506;48.202;16.274;2023-12-20T13:11:59;8.70;95.50
49124;DHT22;48506;48.202;16.274;2023-12-20T13:14:25;8.70;95.60
49124;DHT22;48506;48.202;16.274;2023-12-20T13:16:51;8.70;95.60
49124;DHT22;48506;48.202;16.274;2023-12-20T13:19:17;8.70;95.50
49124;DHT22;48506;48.202;16.274;2023-12-20T13:21:43;8.70;95.70
49124;DHT22;48506;48.202;16.274;2023-12-20T13:24:08;8.60;95.50
49124;DHT22;48506;48.202;16.274;2023-12-20T13:26:34;8.60;95.60
49124;DHT22;48506;48.202;16.274;2023-12-20T13:29:00;8.60;95.70
49124;DHT22;48506;48.202;16.274;2023-12-20T13:31:27;8.70;95.80
49124;DHT22;48506;48.202;16.274;2023-12-20T13:33:52;8.70;95.70
49124;DHT22;48506;48.202;16.274;2023-12-20T13:36:18;8.70;95.70
49124;DHT22;48506;48.202;16.274;2023-12-20T13:38:44;8.70;95.50
49124;DHT22;48506;48.202;16.274;2023-12-20T13:41:10;8.60;95.50
49124;DHT22;48506;48.202;16.274;2023-12-20T13:43:36;8.60;95.70
49124;DHT22;48506;48.202;16.274;2023-12-20T13:46:02;8.60;95.80
49124;DHT22;48506;48.202;16.274;2023-12-20T13:48:28;8.60;95.90
49124;DHT22;48506;48.202;16.274;2023-12-20T13:50:54;8.60;96.10
49124;DHT22;48506;48.202;16.274;2023-12-20T13:53:20;8.60;96.00
49124;DHT22;48506;48.202;16.274;2023-12-20T13:55:46;8.70;95.80
49124;DHT22;48506;48.202;16.274;2023-12-20T13:58:12;8.70;95.70
49124;DHT22;48506;48.202;16.274;2023-12-20T14:00:38;8.80;95.70
49124;DHT22;48506;48.202;16.274;2023-12-20T14:03:04;8.80;95.60
49124;DHT22;48506;48.202;16.274;2023-12-20T14:05:31;8.90;95.50
49124;DHT22;48506;48.202;16.274;2023-12-20T14:07:57;8.90;95.40
49124;DHT22;48506;48.202;16.274;2023-12-20T14:10:24;9.00;95.40
49124;DHT22;48506;48.202;16.274;2023-12-20T14:12:53;9.00;95.20
49124;DHT22;48506;48.202;16.274;2023-12-20T14:15:19;8.90;95.30
49124;DHT22;48506;48.202;16.274;2023-12-20T14:17:44;8.80;95.40
49124;DHT22;48506;48.202;16.274;2023-12-20T14:20:11;8.70;95.50
49124;DHT22;48506;48.202;16.274;2023-12-20T14:22:42;8.60;95.60
49124;DHT22;48506;48.202;16.274;2023-12-20T14:25:13;8.40;95.70
49124;DHT22;48506;48.202;16.274;2023-12-20T14:27:40;8.40;95.80
49124;DHT22;48506;48.202;16.274;2023-12-20T14:30:07;8.30;95.90
49124;DHT22;48506;48.202;16.274;2023-12-20T14:32:35;8.20;96.10
49124;DHT22;48506;48.202;16.274;2023-12-20T14:35:07;8.20;96.20
49124;DHT22;48506;48.202;16.274;2023-12-20T14:37:34;8.10;96.40
49124;DHT22;48506;48.202;16.274;2023-12-20T14:40:01;8.10;96.50
49124;DHT22;48506;48.202;16.274;2023-12-20T14:42:28;8.10;96.60
49124;DHT22;48506;48.202;16.274;2023-12-20T14:44:53;8.10;96.60
49124;DHT22;48506;48.202;16.274;2023-12-20T14:47:20;8.10;96.70
49124;DHT22;48506;48.202;16.274;2023-12-20T14:49:46;8.10;96.60
49124;DHT22;48506;48.202;16.274;2023-12-20T14:52:13;8.10;96.60
49124;DHT22;48506;48.202;16.274;2023-12-20T14:54:39;8.10;96.60
49124;DHT22;48506;48.202;16.274;2023-12-20T14:57:05;8.00;96.60
49124;DHT22;48506;48.202;16.274;2023-12-20T14:59:30;8.10;96.60
49124;DHT22;48506;48.202;16.274;2023-12-20T15:01:56;8.00;96.70
49124;DHT22;48506;48.202;16.274;2023-12-20T15:04:22;8.00;96.70
49124;DHT22;48506;48.202;16.274;2023-12-20T15:06:54;8.10;96.60
49124;DHT22;48506;48.202;16.274;2023-12-20T15:09:21;8.10;96.60
49124;DHT22;48506;48.202;16.274;2023-12-20T15:11:47;8.10;96.60
49124;DHT22;48506;48.202;16.274;2023-12-20T15:14:13;8.10;96.40
49124;DHT22;48506;48.202;16.274;2023-12-20T15:16:45;8.20;96.50
49124;DHT22;48506;48.202;16.274;2023-12-20T15:19:13;8.10;96.40
49124;DHT22;48506;48.202;16.274;2023-12-20T15:21:39;8.20;96.40
49124;DHT22;48506;48.202;16.274;2023-12-20T15:24:09;8.20;96.40
49124;DHT22;48506;48.202;16.274;2023-12-20T15:26:42;8.20;96.40
49124;DHT22;48506;48.202;16.274;2023-12-20T15:29:09;8.20;96.40
49124;DHT22;48506;48.202;16.274;2023-12-20T15:31:41;8.20;96.30